Flight Track Log - Related Links

Times and Time Zones

All times are in EDT time to prevent confusion due to time zone crossing. See the TRS679 flight status page for this flight to view local times or setup timezone preferences in your user account.

Time Position Orientation Groundspeed Altitude Reporting Facility
EDT Latitude Longitude Course Direction KTS MPH feet Rate Location/Type
Fri 17:51:48 33.6333 -84.4667 118° Southeast 157 181 2,600  Level Atlanta TRACON
Fri 17:52:48 33.6167 -84.5167 248° West 220 253 3,600 2,095 Climbing Atlanta TRACON
Fri 17:53:54 33.5667 -84.5833 228° Southwest 231 266 7,000 2,524 Climbing Atlanta TRACON
Fri 17:54:54 33.5000 -84.5833 180° South 266 306 8,900 1,760 Climbing Atlanta TRACON
Fri 17:56:41 33.4556 -84.3900 105° East 331 381 11,900 1,796 Climbing Atlanta Center
Fri 17:57:00 33.6467 -83.8733 118° Southeast  Level FlightAware
Fri 17:57:41 33.4600 -84.2531 88° East 383 441 13,900  Level Atlanta Center
Fri 17:58:41 33.4811 -84.1111 80° East 419 482 16,000 1,800 Climbing Atlanta Center
Fri 17:59:41 33.5019 -83.9642 80° East 435 501 17,500 1,500 Climbing Atlanta Center
Fri 18:00:41 33.5247 -83.8119 80° East 449 517 19,000 1,850 Climbing Atlanta Center
Fri 18:01:41 33.5453 -83.6625 81° East 460 529 21,200 2,150 Climbing Atlanta Center
Fri 18:02:41 33.5636 -83.5103 82° East 460 529 23,300 1,400 Climbing Atlanta Center
Fri 18:03:41 33.5814 -83.3531 82° East 471 542 24,000 850 Climbing Atlanta Center
Fri 18:04:41 33.5972 -83.1908 83° East 485 558 25,000 1,000 Climbing Atlanta Center
Fri 18:05:41 33.6169 -83.0261 82° East 495 570 26,000 2,000 Climbing Atlanta Center
Fri 18:06:41 33.6592 -82.8683 72° East 501 577 29,000 1,300 Climbing Atlanta Center
Fri 18:07:41 33.7142 -82.7303 64° Northeast 501 577 28,600  Descending Atlanta Center
Fri 18:08:41 33.7794 -82.5817 62° Northeast 501 577 29,000 200 Climbing Atlanta Center
Fri 18:09:41 33.8419 -82.4256 64° Northeast 507 583 29,000  Level Atlanta Center
Fri 18:11:44 33.9717 -82.1139 63° Northeast 529 609 29,000  Level Jacksonville Center
Fri 18:12:44 34.0311 -81.9628 65° Northeast 509 586 29,000  Level Jacksonville Center
Fri 18:13:44 34.0947 -81.8092 63° Northeast 503 579 29,000  Level Jacksonville Center
Fri 18:14:44 34.1497 -81.6731 64° Northeast 498 573 29,000  Level Jacksonville Center
Fri 18:15:44 34.2250 -81.4886 64° Northeast 504 580 29,000  Level Jacksonville Center
Fri 18:16:44 34.2778 -81.3697 62° Northeast 509 586 29,000  Level Jacksonville Center
Fri 18:17:44 34.3678 -81.2172 54° Northeast 508 585 29,000 -300 Level Jacksonville Center
Fri 18:18:44 34.4556 -81.0769 53° Northeast 513 590 28,400 -800 Descending Jacksonville Center
Fri 18:19:44 34.5431 -80.9417 52° Northeast 518 596 27,400 -1,000 Descending Jacksonville Center
Fri 18:20:44 34.6328 -80.8008 52° Northeast 527 606 26,400 -1,005 Descending Jacksonville Center
Fri 18:22:55 34.8156 -80.5047 53° Northeast 506 582 24,200 -1,005 Descending Washington Center
Fri 18:23:55 34.8983 -80.3731 53° Northeast 500 575 23,200 -600 Descending Washington Center
Fri 18:24:55 34.9806 -80.2411 53° Northeast 487 560 23,000 -100 Descending Washington Center
Fri 18:25:55 35.0608 -80.1111 53° Northeast 487 560 23,000  Level Washington Center
Fri 18:26:55 35.1517 -79.9689 52° Northeast 487 560 23,000  Level Washington Center
Fri 18:27:55 35.1900 -79.8286 71° East 448 516 23,000  Level Washington Center
Fri 18:28:55 35.1956 -79.6739 87° East 438 504 23,000  Level Washington Center
Fri 18:29:55 35.1922 -79.5239 92° East 438 504 23,000  Level Washington Center
Fri 18:30:55 35.1886 -79.3711 92° East 443 510 23,000  Level Washington Center
Fri 18:31:56 35.1683 -79.2228 99° East 443 510 23,000 -50 Level Washington Center
Fri 18:32:55 35.1769 -79.0708 86° East 444 511 22,900 -1,008 Descending Washington Center
Fri 18:33:55 35.2186 -78.9278 70° East 439 505 21,000 -2,727 Descending Washington Center
Fri 18:34:56 35.2806 -78.8031 59° Northeast 429 494 17,400 -3,446 Descending Washington Center
Fri 18:35:36 35.3403 -78.7494 36° Northeast 425 489 15,200 -3,254 Descending Washington Center
Fri 18:35:55 35.3828 -78.7231 27° Northeast 410 472 14,200 -2,757 Descending Washington Center
Fri 18:36:13 35.4061 -78.7086 27° Northeast 421 484 13,500 -2,400 Descending Washington Center
Fri 18:36:55 35.4825 -78.6556 29° Northeast 408 470 11,800 -2,000 Descending Washington Center
Fri 18:37:13 35.5058 -78.6386 31° Northeast 412 474 11,500 -900 Descending Washington Center
Fri 18:37:55 35.5861 -78.6083 17° North 398 458 10,900 -1,180 Descending Washington Center
Fri 18:38:14 35.6133 -78.5967 19° North 368 423 10,300 -2,100 Descending Washington Center
Fri 18:38:55 35.6786 -78.5761 14° North 377 434 8,800 -2,066 Descending Washington Center
Fri 18:39:15 35.7058 -78.5694 11° North 316 364 8,200 -1,200 Descending Washington Center
Fri 18:39:55 35.7622 -78.5742 356° North 310 357 7,600 -800 Descending Washington Center
Fri 18:40:15 35.7806 -78.5850 334° Northwest 255 293 7,400 -900 Descending Washington Center
Fri 18:40:55 35.8258 -78.6097 336° Northwest 269 310 6,700 -984 Descending Washington Center
Fri 18:41:16 35.8403 -78.6181 335° Northwest 233 268 6,400 -600 Descending Washington Center
Fri 18:41:55 35.8883 -78.6147 North 243 280 6,100 -500 Descending Washington Center
Fri 18:42:16 35.9033 -78.6000 38° Northeast 261 300 5,900 -1,244 Descending Washington Center
Fri 18:43:17 35.9708 -78.5742 17° North 247 284 4,400 -1,152 Descending Washington Center
Fri 18:43:55 36.0103 -78.5783 355° North 224 258 4,000 -295 Descending Washington Center
Fri 18:44:18 36.0256 -78.5533 53° Northeast 244 281 4,100 600 Climbing Washington Center
Fri 18:44:55 36.0392 -78.5050 71° East 195 224 4,600 900 Climbing Washington Center
Fri 18:45:18 36.0422 -78.4742 83° East 236 272 5,000 357 Climbing Washington Center
Fri 18:46:19 36.0164 -78.4092 116° Southeast 210 242 5,100 393 Climbing Washington Center
Fri 18:47:20 35.9867 -78.3439 119° Southeast 216 249 5,800 893 Climbing Washington Center
Fri 18:48:20 36.0117 -78.2600 70° East 307 353 6,900 595 Climbing Washington Center
Fri 18:49:21 36.0775 -78.2083 32° Northeast 295 339 7,000 99 Climbing Washington Center
Fri 18:50:21 36.1011 -78.2656 297° West 181 208 7,100 100 Climbing Washington Center

Login

Don't have an account? Register now (free) for customized features, flight alerts, and more!